Time;durP1;ratioP1;P1;durP2;ratioP2;P2;SDS_P1;SDS_P2;PMS_P1;PMS_P2;Temp;Humidity;BMP_temperature;BMP_pressure;BME280_temperature;BME280_humidity;BME280_pressure;Samples;Min_cycle;Max_cycle;Signal;HPM_P1;HPM_P2
2021/09/12 00:00:20;;;;;;;31.33;15.70;;;;;;;15.94;57.60;101576.66;5036596;28;20052;-70
2021/09/12 00:02:46;;;;;;;30.95;16.48;;;;;;;15.56;58.56;101566.28;5037650;28;20087;-71
2021/09/12 00:05:12;;;;;;;31.67;15.65;;;;;;;15.68;58.38;101570.06;5035305;28;20052;-70
2021/09/12 00:07:37;;;;;;;34.88;16.55;;;;;;;15.68;58.29;101569.22;5054503;28;20114;-70
2021/09/12 00:10:04;;;;;;;34.55;16.85;;;;;;;15.88;57.98;101570.84;5036941;28;20021;-70
2021/09/12 00:12:30;;;;;;;31.80;17.17;;;;;;;16.03;57.38;101558.69;5034663;28;20039;-71
2021/09/12 00:14:55;;;;;;;31.52;15.40;;;;;;;15.99;57.47;101557.94;5053180;28;20037;-70
2021/09/12 00:17:21;;;;;;;34.50;15.07;;;;;;;16.08;57.24;101556.66;5031009;28;20609;-70
2021/09/12 00:19:46;;;;;;;30.27;15.68;;;;;;;16.15;57.03;101548.34;5053001;28;20436;-70
2021/09/12 00:22:12;;;;;;;34.72;16.85;;;;;;;15.93;57.58;101558.25;5032843;28;20029;-70
2021/09/12 00:24:37;;;;;;;30.63;16.52;;;;;;;16.05;57.26;101546.28;5035070;28;20379;-70
2021/09/12 00:27:03;;;;;;;30.70;16.25;;;;;;;16.17;56.78;101545.59;5035375;28;20445;-71
2021/09/12 00:29:28;;;;;;;27.38;14.40;;;;;;;16.23;56.64;101549.72;5034025;28;20035;-71
2021/09/12 00:31:54;;;;;;;35.38;17.50;;;;;;;15.98;57.24;101551.84;5034774;28;20039;-70
2021/09/12 00:34:19;;;;;;;36.30;15.80;;;;;;;15.98;57.50;101546.56;5035114;28;20041;-71
2021/09/12 00:36:45;;;;;;;26.35;16.73;;;;;;;15.88;57.69;101542.69;5031712;28;20041;-70
2021/09/12 00:39:11;;;;;;;33.28;16.52;;;;;;;15.98;57.61;101543.91;5036122;28;20516;-70
2021/09/12 00:41:38;;;;;;;35.95;17.55;;;;;;;16.22;56.85;101538.31;5034555;28;20045;-70
2021/09/12 00:44:04;;;;;;;35.65;17.38;;;;;;;15.88;57.62;101540.03;5036881;28;20371;-71
2021/09/12 00:46:29;;;;;;;32.63;16.83;;;;;;;15.90;57.90;101534.72;5035794;28;20402;-70
2021/09/12 00:48:55;;;;;;;31.05;17.48;;;;;;;16.27;56.72;101535.44;5034535;28;20056;-70
2021/09/12 00:51:20;;;;;;;35.90;18.00;;;;;;;15.99;57.39;101532.47;5014212;28;20067;-69
2021/09/12 00:53:48;;;;;;;31.10;16.17;;;;;;;15.98;57.50;101530.75;5035424;28;20029;-70
2021/09/12 00:56:14;;;;;;;37.75;17.73;;;;;;;16.06;57.26;101526.88;5033834;28;20056;-70
2021/09/12 00:58:42;;;;;;;35.72;17.58;;;;;;;16.05;57.26;101530.47;5034892;28;20491;-70
2021/09/12 01:01:08;;;;;;;37.65;18.55;;;;;;;15.89;58.01;101531.22;5034876;28;20032;-70
2021/09/12 01:03:34;;;;;;;33.53;17.38;;;;;;;16.03;57.64;101530.53;5032742;28;20032;-70
2021/09/12 01:06:00;;;;;;;36.90;18.80;;;;;;;15.43;59.42;101530.09;5039599;28;20029;-69
2021/09/12 01:08:26;;;;;;;38.60;18.33;;;;;;;15.75;58.44;101534.59;5034653;28;21347;-70
2021/09/12 01:10:52;;;;;;;41.47;19.77;;;;;;;15.89;57.99;101536.50;5035701;28;20028;-69
2021/09/12 01:13:17;;;;;;;43.08;18.60;;;;;;;16.05;57.53;101530.47;5034831;28;20497;-70
2021/09/12 01:15:43;;;;;;;35.63;18.15;;;;;;;16.24;56.84;101528.53;5037575;28;20361;-70
2021/09/12 01:18:08;;;;;;;39.00;18.33;;;;;;;16.35;56.58;101528.81;5032383;28;20064;-70
2021/09/12 01:20:34;;;;;;;35.08;17.33;;;;;;;16.40;56.53;101516.22;5035218;28;20037;-70
2021/09/12 01:23:00;;;;;;;36.63;16.85;;;;;;;16.48;56.37;101517.59;5033691;28;20300;-70
2021/09/12 01:25:25;;;;;;;36.35;19.23;;;;;;;16.42;56.44;101522.28;5033312;28;20413;-70
2021/09/12 01:27:51;;;;;;;37.30;17.58;;;;;;;16.38;56.33;101515.47;5036090;28;20036;-73
2021/09/12 01:30:16;;;;;;;38.25;18.80;;;;;;;15.92;57.61;101520.50;5032890;28;20056;-70
2021/09/12 01:32:42;;;;;;;35.35;17.55;;;;;;;16.15;57.16;101531.66;5035295;28;20072;-70
2021/09/12 01:35:08;;;;;;;31.98;18.10;;;;;;;16.28;56.43;101523.94;5033239;28;20029;-70
2021/09/12 01:37:33;;;;;;;40.17;19.63;;;;;;;16.23;56.77;101521.56;5032396;28;20053;-70
2021/09/12 01:39:58;;;;;;;38.92;18.75;;;;;;;16.34;56.53;101527.09;5032665;28;20069;-71
2021/09/12 01:42:24;;;;;;;35.45;18.70;;;;;;;16.30;56.58;101517.66;5033494;28;20041;-70
2021/09/12 01:44:50;;;;;;;38.40;19.23;;;;;;;15.93;57.58;101519.59;5033771;28;20064;-71
2021/09/12 01:47:17;;;;;;;40.53;19.10;;;;;;;16.14;56.99;101519.41;5033335;28;20448;-70
2021/09/12 01:49:42;;;;;;;38.58;20.25;;;;;;;16.19;56.81;101512.94;5031805;28;20043;-70
2021/09/12 01:52:12;;;;;;;39.08;19.98;;;;;;;16.02;57.47;101517.41;5037156;28;20029;-70
2021/09/12 01:54:38;;;;;;;36.60;20.65;;;;;;;16.16;56.92;101518.41;5040008;28;20037;-70
2021/09/12 01:57:04;;;;;;;36.88;17.05;;;;;;;16.20;56.77;101519.09;5038661;28;20029;-70
2021/09/12 01:59:30;;;;;;;30.23;18.10;;;;;;;16.25;56.71;101514.41;5037809;28;20371;-71
2021/09/12 02:01:55;;;;;;;31.83;18.75;;;;;;;16.10;57.06;101521.34;5035974;28;20037;-70
2021/09/12 02:04:21;;;;;;;32.85;18.52;;;;;;;16.05;57.43;101522.53;5036482;28;20103;-70
2021/09/12 02:06:46;;;;;;;36.42;18.23;;;;;;;16.17;56.92;101529.78;5038800;28;20052;-70
2021/09/12 02:09:11;;;;;;;38.08;19.30;;;;;;;16.12;57.19;101521.28;5054938;28;20032;-71
2021/09/12 02:11:37;;;;;;;38.63;19.00;;;;;;;16.11;57.25;101519.59;5034877;28;20075;-70
2021/09/12 02:14:03;;;;;;;36.38;18.30;;;;;;;16.15;57.04;101521.97;5037422;28;20029;-70
2021/09/12 02:16:28;;;;;;;40.65;19.55;;;;;;;16.06;57.31;101516.31;5037841;28;20033;-70
2021/09/12 02:18:53;;;;;;;38.75;19.02;;;;;;;15.87;57.74;101522.53;5037997;28;20039;-71
2021/09/12 02:21:19;;;;;;;37.08;17.63;;;;;;;16.17;57.07;101529.78;5036965;28;20037;-73
2021/09/12 02:23:45;;;;;;;43.90;19.13;;;;;;;16.19;56.94;101527.94;5038448;28;20363;-70
2021/09/12 02:26:10;;;;;;;32.67;17.88;;;;;;;16.09;57.15;101527.56;5036955;28;20037;-70
2021/09/12 02:28:36;;;;;;;38.85;18.95;;;;;;;16.00;57.43;101526.28;5035888;28;20063;-70
2021/09/12 02:31:02;;;;;;;36.58;20.45;;;;;;;15.67;58.66;101520.09;5036343;28;20505;-70
2021/09/12 02:33:27;;;;;;;41.60;19.33;;;;;;;15.97;57.36;101523.78;5034186;28;20108;-70
2021/09/12 02:35:53;;;;;;;35.30;19.20;;;;;;;15.97;57.36;101522.91;5054221;28;20025;-70
2021/09/12 02:38:18;;;;;;;32.85;18.70;;;;;;;15.90;57.64;101526.78;5037820;28;20040;-71
2021/09/12 02:40:44;;;;;;;32.63;18.33;;;;;;;15.84;57.74;101527.09;5036811;28;20033;-70
2021/09/12 02:43:09;;;;;;;37.75;18.48;;;;;;;15.69;58.31;101531.41;5042232;28;20132;-70
2021/09/12 02:45:36;;;;;;;40.90;20.35;;;;;;;15.68;58.41;101527.06;5051500;28;20041;-70
2021/09/12 02:48:01;;;;;;;37.33;18.95;;;;;;;15.91;57.74;101524.09;5036065;28;20060;-70
2021/09/12 02:50:28;;;;;;;34.92;19.05;;;;;;;15.86;57.96;101525.25;5034342;28;20068;-70
2021/09/12 02:52:53;;;;;;;32.15;18.50;;;;;;;15.91;57.81;101534.63;5036382;28;20116;-70
2021/09/12 02:55:18;;;;;;;36.47;20.08;;;;;;;15.63;58.21;101529.94;5036285;28;20550;-70
2021/09/12 02:57:44;;;;;;;44.17;19.63;;;;;;;15.63;58.39;101529.09;5033923;28;20124;-70
2021/09/12 03:00:10;;;;;;;42.03;19.20;;;;;;;15.79;58.03;101532.63;5050716;28;20399;-71
2021/09/12 03:02:35;;;;;;;33.22;17.83;;;;;;;15.87;57.75;101522.53;5035528;28;20033;-70
2021/09/12 03:05:01;;;;;;;34.78;18.58;;;;;;;15.40;59.11;101528.47;5037522;28;20587;-71
2021/09/12 03:07:26;;;;;;;41.35;18.85;;;;;;;15.58;58.82;101530.16;5035513;28;20033;-70
2021/09/12 03:09:52;;;;;;;45.00;19.88;;;;;;;15.88;57.76;101532.13;5034178;28;20573;-70
2021/09/12 03:12:18;;;;;;;31.45;18.08;;;;;;;15.84;57.98;101524.47;5042493;28;20041;-70
2021/09/12 03:14:44;;;;;;;39.70;17.92;;;;;;;15.84;58.31;101524.47;5035577;28;20101;-70
2021/09/12 03:17:11;;;;;;;33.70;18.95;;;;;;;16.03;57.45;101527.03;5036697;28;20064;-70
2021/09/12 03:19:37;;;;;;;34.15;17.92;;;;;;;16.19;57.17;101527.94;5053250;28;20112;-70
2021/09/12 03:22:03;;;;;;;36.30;18.70;;;;;;;15.88;57.74;101526.03;5035708;28;20133;-70
2021/09/12 03:24:31;;;;;;;39.65;17.58;;;;;;;15.91;57.87;101526.72;5037390;28;20025;-70
2021/09/12 03:26:57;;;;;;;33.38;17.27;;;;;;;15.66;58.59;101523.63;5042030;28;20412;-70
2021/09/12 03:29:22;;;;;;;32.80;16.90;;;;;;;16.07;57.48;101512.78;5037186;28;20459;-71
2021/09/12 03:31:48;;;;;;;36.55;17.38;;;;;;;15.92;57.94;101519.66;5035266;28;20063;-70
2021/09/12 03:34:14;;;;;;;33.35;17.67;;;;;;;16.14;57.17;101517.63;5055154;28;20335;-70
2021/09/12 03:36:39;;;;;;;38.40;17.20;;;;;;;16.00;57.69;101515.72;5037282;28;20306;-70
2021/09/12 03:39:05;;;;;;;33.90;16.35;;;;;;;16.01;57.81;101508.66;5039643;28;20071;-71
2021/09/12 03:41:30;;;;;;;32.50;17.55;;;;;;;16.00;57.76;101513.09;5033257;28;20060;-71
2021/09/12 03:43:56;;;;;;;38.80;17.15;;;;;;;16.17;57.24;101508.69;5040798;28;20033;-70
2021/09/12 03:46:21;;;;;;;38.25;18.70;;;;;;;16.15;57.11;101510.56;5034525;28;20561;-70
2021/09/12 03:48:47;;;;;;;33.28;16.60;;;;;;;15.93;57.86;101508.16;5035070;28;20041;-70
2021/09/12 03:51:12;;;;;;;32.95;16.75;;;;;;;15.95;57.85;101519.50;5037047;28;20036;-70
2021/09/12 03:53:38;;;;;;;34.53;16.85;;;;;;;16.05;57.44;101519.91;5035879;28;20031;-70
2021/09/12 03:56:04;;;;;;;35.03;17.38;;;;;;;15.95;57.77;101520.38;5035570;28;20407;-70
2021/09/12 03:58:29;;;;;;;38.75;18.30;;;;;;;15.72;58.45;101521.53;5033466;28;20249;-71
2021/09/12 04:00:55;;;;;;;37.35;16.95;;;;;;;15.57;59.24;101520.56;5035121;28;20028;-70
2021/09/12 04:03:20;;;;;;;32.13;16.80;;;;;;;15.69;58.49;101518.22;5033201;28;20174;-72
2021/09/12 04:05:46;;;;;;;34.85;16.98;;;;;;;15.86;58.29;101519.97;5034693;28;20042;-70
2021/09/12 04:08:11;;;;;;;32.25;17.23;;;;;;;16.10;57.75;101520.50;5042089;28;20084;-70
2021/09/12 04:10:37;;;;;;;46.78;17.85;;;;;;;16.06;57.64;101513.69;5033982;28;20565;-70
2021/09/12 04:13:02;;;;;;;43.00;17.67;;;;;;;16.07;57.72;101515.41;5033099;28;20115;-70
2021/09/12 04:15:27;;;;;;;45.30;18.13;;;;;;;16.18;57.57;101515.69;5035611;28;20025;-71
2021/09/12 04:17:55;;;;;;;37.95;17.67;;;;;;;16.32;57.25;101518.41;5037502;28;20041;-71
2021/09/12 04:20:21;;;;;;;37.10;17.50;;;;;;;16.34;57.15;101507.78;5034788;28;20182;-71
2021/09/12 04:22:46;;;;;;;37.63;18.58;;;;;;;16.33;57.04;101514.00;5040578;28;20551;-70
2021/09/12 04:25:12;;;;;;;43.35;17.23;;;;;;;16.29;57.05;101509.84;5032650;28;20073;-71
2021/09/12 04:27:37;;;;;;;39.53;18.48;;;;;;;16.04;57.91;101505.00;5040280;28;20060;-70
2021/09/12 04:30:04;;;;;;;41.88;18.13;;;;;;;16.10;57.78;101516.06;5040563;28;20037;-70
2021/09/12 04:32:30;;;;;;;38.55;17.85;;;;;;;16.15;57.41;101515.84;5034887;28;20033;-70
2021/09/12 04:34:56;;;;;;;37.58;18.15;;;;;;;15.84;58.57;101521.84;5040895;28;20061;-71
2021/09/12 04:37:21;;;;;;;42.97;19.75;;;;;;;16.21;57.38;101512.88;5035268;28;20482;-71
2021/09/12 04:39:47;;;;;;;39.67;19.33;;;;;;;15.99;58.14;101516.63;5045217;28;20044;-70
2021/09/12 04:42:12;;;;;;;46.40;18.48;;;;;;;15.86;58.80;101515.53;5033942;28;20045;-70
2021/09/12 04:44:38;;;;;;;42.83;16.60;;;;;;;16.10;57.73;101524.00;5034361;28;20040;-70
2021/09/12 04:47:03;;;;;;;36.50;17.90;;;;;;;16.03;57.94;101521.78;5034178;28;20047;-71
2021/09/12 04:49:29;;;;;;;39.17;17.95;;;;;;;16.05;57.85;101517.28;5033938;28;20039;-71
2021/09/12 04:51:54;;;;;;;37.78;17.88;;;;;;;16.04;57.65;101523.47;5035321;28;20025;-72
2021/09/12 04:54:20;;;;;;;38.28;18.08;;;;;;;15.95;58.01;101517.72;5034905;28;20120;-71
2021/09/12 04:56:45;;;;;;;33.40;15.43;;;;;;;16.21;57.31;101526.91;5033679;28;20124;-69
2021/09/12 04:59:10;;;;;;;37.42;17.17;;;;;;;15.97;58.07;101523.78;5032552;28;20029;-72
2021/09/12 05:01:37;;;;;;;40.65;17.20;;;;;;;15.90;58.15;101519.72;5035718;28;20524;-72
2021/09/12 05:04:03;;;;;;;42.55;16.67;;;;;;;15.65;59.07;101527.22;5037844;28;20056;-70
2021/09/12 05:06:28;;;;;;;40.30;17.58;;;;;;;15.80;58.28;101534.34;5032430;28;20438;-71
2021/09/12 05:08:54;;;;;;;38.60;17.23;;;;;;;15.88;58.07;101520.75;5034681;28;20040;-71
2021/09/12 05:11:19;;;;;;;38.97;16.50;;;;;;;15.89;58.01;101520.69;5034726;28;20041;-71
2021/09/12 05:13:45;;;;;;;36.33;16.58;;;;;;;15.78;58.41;101520.38;5033432;28;20168;-71
2021/09/12 05:16:10;;;;;;;30.67;16.30;;;;;;;15.79;58.40;101519.44;5034098;28;20033;-71
2021/09/12 05:18:35;;;;;;;39.83;16.92;;;;;;;15.79;58.22;101519.44;5033877;28;20034;-71
2021/09/12 05:21:01;;;;;;;39.63;16.20;;;;;;;16.13;57.30;101517.69;5035428;28;20071;-71
2021/09/12 05:23:28;;;;;;;42.95;18.17;;;;;;;16.17;56.92;101519.25;5030186;28;20411;-71
2021/09/12 05:25:53;;;;;;;33.10;15.15;;;;;;;16.03;57.17;101524.41;5021928;28;20037;-71
2021/09/12 05:28:19;;;;;;;27.85;13.10;;;;;;;15.71;57.99;101526.91;5038926;28;20044;-72
2021/09/12 05:30:44;;;;;;;33.35;14.95;;;;;;;15.84;57.74;101525.34;5038891;28;20401;-71
2021/09/12 05:33:10;;;;;;;26.70;13.82;;;;;;;15.92;57.41;101536.31;5038982;28;20037;-71
2021/09/12 05:35:35;;;;;;;32.47;14.52;;;;;;;15.53;58.43;101523.44;5038702;28;20039;-71
2021/09/12 05:38:01;;;;;;;33.25;14.20;;;;;;;15.81;57.81;101528.13;5038928;28;20033;-71
2021/09/12 05:40:27;;;;;;;32.45;14.68;;;;;;;15.98;57.11;101517.56;5038606;28;20056;-71
2021/09/12 05:42:53;;;;;;;30.88;12.75;;;;;;;15.04;59.55;101526.69;5039742;28;20040;-71
2021/09/12 05:45:18;;;;;;;33.05;13.73;;;;;;;15.93;57.46;101526.63;5035635;28;20033;-70
2021/09/12 05:47:43;;;;;;;27.00;14.32;;;;;;;15.98;57.05;101520.19;5037878;28;20042;-72
2021/09/12 05:50:09;;;;;;;33.22;14.60;;;;;;;16.34;56.26;101531.53;5038199;28;20041;-71
2021/09/12 05:52:35;;;;;;;33.28;13.18;;;;;;;16.11;56.44;101525.72;5044008;28;20028;-71
2021/09/12 05:55:01;;;;;;;30.75;13.38;;;;;;;16.02;56.93;101531.47;5036753;28;20024;-71
2021/09/12 05:57:26;;;;;;;19.33;10.80;;;;;;;15.98;56.83;101529.91;5036658;28;20037;-71
2021/09/12 05:59:52;;;;;;;29.88;12.00;;;;;;;15.82;57.20;101532.47;5036491;28;20076;-71
2021/09/12 06:02:18;;;;;;;33.40;11.30;;;;;;;15.59;57.51;101536.28;5035859;28;20052;-71
2021/09/12 06:04:44;;;;;;;33.63;12.27;;;;;;;15.52;58.15;101543.63;5035323;28;20044;-71
2021/09/12 06:07:10;;;;;;;25.90;12.07;;;;;;;15.92;56.94;101541.59;5038683;28;20116;-71
2021/09/12 06:09:36;;;;;;;35.10;13.57;;;;;;;15.77;57.78;101543.25;5042456;28;20086;-71
2021/09/12 06:12:02;;;;;;;33.83;13.30;;;;;;;16.18;56.58;101542.06;5038767;28;20037;-70
2021/09/12 06:14:28;;;;;;;27.15;12.63;;;;;;;16.02;57.01;101536.75;5036945;28;20021;-71
2021/09/12 06:16:53;;;;;;;33.05;13.15;;;;;;;16.14;56.61;101551.06;5044891;28;20085;-71
2021/09/12 06:19:19;;;;;;;26.95;13.73;;;;;;;16.04;57.05;101544.56;5036674;28;20036;-70
2021/09/12 06:21:44;;;;;;;30.40;13.18;;;;;;;16.17;56.62;101542.97;5036236;28;20036;-71
2021/09/12 06:24:10;;;;;;;26.83;13.93;;;;;;;16.11;56.82;101541.53;5038335;28;20048;-71
2021/09/12 06:26:35;;;;;;;27.67;13.82;;;;;;;16.33;56.07;101541.25;5033263;28;20168;-70
2021/09/12 06:29:01;;;;;;;30.20;13.65;;;;;;;16.29;56.48;101547.59;5037502;28;20530;-70
2021/09/12 06:31:27;;;;;;;26.13;13.52;;;;;;;16.55;56.04;101555.88;5034476;28;20513;-70
2021/09/12 06:33:53;;;;;;;21.90;12.63;;;;;;;16.72;55.75;101547.91;5037674;28;20041;-69
2021/09/12 06:36:19;;;;;;;23.45;12.40;;;;;;;16.73;55.52;101554.03;5035582;28;20488;-70
2021/09/12 06:38:45;;;;;;;27.15;13.25;;;;;;;16.41;55.77;101548.72;5035016;28;20108;-71
2021/09/12 06:41:11;;;;;;;30.67;14.07;;;;;;;16.78;55.44;101552.03;5036074;28;20041;-70
2021/09/12 06:43:37;;;;;;;32.47;14.07;;;;;;;17.15;54.37;101556.06;5042235;28;20041;-70
2021/09/12 06:46:03;;;;;;;30.05;12.52;;;;;;;17.42;54.25;101553.63;5036091;28;20036;-70
2021/09/12 06:48:28;;;;;;;25.25;13.35;;;;;;;17.49;53.47;101553.28;5037156;28;20035;-70
2021/09/12 06:50:57;;;;;;;29.30;14.95;;;;;;;16.89;54.80;101546.13;5038453;28;20033;-72
2021/09/12 06:53:22;;;;;;;25.10;12.52;;;;;;;17.11;54.29;101551.88;5034297;28;20103;-71
2021/09/12 06:55:48;;;;;;;21.85;13.90;;;;;;;17.14;54.43;101549.09;5036292;28;20489;-70
2021/09/12 06:58:14;;;;;;;26.45;14.43;;;;;;;17.14;54.44;101548.25;5034139;28;20037;-72
2021/09/12 07:00:40;;;;;;;29.52;14.23;;;;;;;17.16;54.54;101547.22;5033255;28;20564;-70
2021/09/12 07:03:05;;;;;;;33.10;15.80;;;;;;;17.16;53.83;101552.50;5039575;28;20037;-70
2021/09/12 07:05:30;;;;;;;25.45;13.00;;;;;;;16.68;54.88;101550.78;5033973;28;20057;-70
2021/09/12 07:07:56;;;;;;;21.80;13.60;;;;;;;16.35;56.51;101554.31;5037706;28;20119;-70
2021/09/12 07:10:21;;;;;;;26.83;15.43;;;;;;;16.98;55.36;101556.19;5032298;28;20117;-71
2021/09/12 07:12:47;;;;;;;27.38;14.88;;;;;;;16.96;54.50;101552.78;5041892;28;20038;-70
2021/09/12 07:15:13;;;;;;;26.55;14.32;;;;;;;17.00;54.43;101551.66;5037054;28;20820;-72
2021/09/12 07:17:38;;;;;;;33.30;14.88;;;;;;;17.20;54.51;101551.38;5040222;28;20572;-70
2021/09/12 07:20:04;;;;;;;31.02;15.07;;;;;;;17.18;54.44;101555.91;5035141;28;20040;-71
2021/09/12 07:22:30;;;;;;;26.27;14.10;;;;;;;17.46;54.26;101554.28;5035946;28;20505;-71
2021/09/12 07:24:55;;;;;;;30.63;14.98;;;;;;;17.30;54.10;101551.69;5038075;28;20038;-70
2021/09/12 07:27:21;;;;;;;30.85;15.18;;;;;;;17.10;54.59;101552.84;5034629;28;20034;-74
2021/09/12 07:29:46;;;;;;;30.13;14.85;;;;;;;17.45;53.57;101557.91;5036560;28;20033;-70
2021/09/12 07:32:12;;;;;;;30.42;15.30;;;;;;;18.24;51.22;101556.75;5038386;28;20616;-70
2021/09/12 07:34:37;;;;;;;35.47;14.90;;;;;;;17.88;51.39;101559.81;5036242;28;20041;-70
2021/09/12 07:37:03;;;;;;;27.98;14.60;;;;;;;18.28;51.00;101552.97;5035322;28;20112;-70
2021/09/12 07:39:29;;;;;;;25.55;14.60;;;;;;;17.93;51.95;101558.56;5034257;28;20037;-71
2021/09/12 07:41:56;;;;;;;29.00;16.35;;;;;;;18.01;52.19;101560.78;5035006;28;20120;-70
2021/09/12 07:44:21;;;;;;;30.70;15.70;;;;;;;18.31;50.63;101555.41;5035749;28;20546;-70
2021/09/12 07:46:47;;;;;;;26.90;14.45;;;;;;;19.29;49.46;101554.41;5054312;28;20036;-71
2021/09/12 07:49:12;;;;;;;24.38;14.80;;;;;;;20.58;46.68;101558.00;5034705;28;20062;-71
2021/09/12 07:51:38;;;;;;;24.83;13.52;;;;;;;20.96;43.28;101551.72;5035340;28;20029;-71
2021/09/12 07:54:03;;;;;;;28.95;14.80;;;;;;;20.89;43.84;101556.66;5037192;28;20064;-71
2021/09/12 07:56:29;;;;;;;26.70;13.65;;;;;;;19.08;46.29;101559.34;5035395;28;20406;-71
2021/09/12 07:58:54;;;;;;;22.63;13.80;;;;;;;19.82;46.85;101558.91;5037940;28;20425;-70
2021/09/12 08:01:20;;;;;;;24.92;14.85;;;;;;;19.15;46.83;101569.56;5037057;28;20127;-71
2021/09/12 08:03:45;;;;;;;31.45;15.15;;;;;;;19.23;47.77;101569.88;5036247;28;20051;-71
2021/09/12 08:06:11;;;;;;;26.27;13.98;;;;;;;19.18;48.91;101570.19;5035044;28;20029;-71
2021/09/12 08:08:36;;;;;;;25.88;15.02;;;;;;;19.30;48.43;101568.50;5034231;28;20559;-70
2021/09/12 08:11:02;;;;;;;22.15;14.50;;;;;;;19.96;45.91;101580.00;5036309;28;20055;-71
2021/09/12 08:13:27;;;;;;;25.15;13.88;;;;;;;20.29;44.79;101568.03;5034489;28;20462;-71
2021/09/12 08:15:53;;;;;;;26.35;15.60;;;;;;;21.31;42.79;101567.72;5037252;28;20402;-70
2021/09/12 08:18:19;;;;;;;17.83;11.88;;;;;;;22.73;39.22;101572.75;5036769;28;20398;-71
2021/09/12 08:20:46;;;;;;;21.67;12.30;;;;;;;22.42;39.10;101569.84;5034581;28;20156;-71
2021/09/12 08:23:12;;;;;;;21.85;11.75;;;;;;;21.83;41.04;101576.22;5036632;28;20456;-70
2021/09/12 08:25:38;;;;;;;22.70;12.98;;;;;;;21.84;41.22;101579.72;5033853;28;20028;-71
2021/09/12 08:28:04;;;;;;;24.35;12.52;;;;;;;20.58;43.04;101581.06;5036365;28;20044;-69
2021/09/12 08:30:29;;;;;;;18.27;12.65;;;;;;;21.05;43.06;101582.09;5031129;28;20116;-70
2021/09/12 08:32:55;;;;;;;23.85;13.38;;;;;;;20.73;43.18;101580.78;5034256;28;20116;-71
2021/09/12 08:35:20;;;;;;;19.65;12.68;;;;;;;21.39;43.56;101576.91;5037463;28;20040;-71
2021/09/12 08:37:46;;;;;;;17.35;11.25;;;;;;;21.13;42.83;101585.00;5053072;28;20485;-71
2021/09/12 08:40:12;;;;;;;19.58;12.27;;;;;;;21.41;43.33;101585.63;5039479;28;20401;-70
2021/09/12 08:42:40;;;;;;;23.80;14.18;;;;;;;21.67;41.42;101589.03;5036131;28;20112;-70
2021/09/12 08:45:06;;;;;;;19.15;12.77;;;;;;;20.66;43.91;101587.53;5034490;28;20037;-72
2021/09/12 08:47:32;;;;;;;27.33;13.02;;;;;;;20.52;44.05;101590.28;5033944;28;20628;-70
2021/09/12 08:49:58;;;;;;;24.45;13.60;;;;;;;20.74;45.62;101600.22;5037076;28;20029;-70
2021/09/12 08:52:23;;;;;;;18.35;12.60;;;;;;;21.70;43.67;101599.41;5033088;28;20032;-70
2021/09/12 08:54:49;;;;;;;15.98;12.05;;;;;;;21.79;42.15;101606.69;5034900;28;20037;-70
2021/09/12 08:57:16;;;;;;;24.50;13.90;;;;;;;20.73;42.38;101601.22;5034316;28;20065;-71
2021/09/12 08:59:50;;;;;;;22.45;12.50;;;;;;;21.34;42.43;101610.00;5038862;28;20116;-70
2021/09/12 09:02:23;;;;;;;20.55;12.77;;;;;;;21.98;41.03;101601.66;5043280;28;20033;-70
2021/09/12 09:04:48;;;;;;;19.35;12.90;;;;;;;22.83;39.97;101605.69;5039875;28;20033;-71
2021/09/12 09:07:14;;;;;;;22.40;12.93;;;;;;;22.52;41.15;101602.78;5039483;28;20103;-71
2021/09/12 09:09:46;;;;;;;15.02;12.18;;;;;;;21.70;41.00;101608.25;5039742;28;20040;-72
2021/09/12 09:12:27;;;;;;;18.40;11.50;;;;;;;21.35;41.21;101606.41;5044835;28;20048;-71
2021/09/12 09:15:13;;;;;;;17.73;10.80;;;;;;;21.58;40.39;101606.53;5052963;28;20049;-72
2021/09/12 09:17:43;;;;;;;15.35;10.35;;;;;;;21.69;41.39;101611.00;5036968;28;20017;-71
2021/09/12 09:20:11;;;;;;;19.25;8.10;;;;;;;21.13;42.20;101612.47;5038152;28;20132;-71
2021/09/12 09:22:42;;;;;;;12.52;9.93;;;;;;;21.62;42.54;101607.97;5037063;28;20596;-71
2021/09/12 09:25:09;;;;;;;;;;;;;;;21.40;41.00;101613.16;5038925;28;20489;-71
2021/09/12 09:28:00;;;;;;;17.08;9.57;;;;;;;21.15;40.74;101610.53;5035700;28;20372;-70
2021/09/12 09:30:32;;;;;;;22.80;12.10;;;;;;;21.21;42.49;101606.56;5039292;28;20029;-70
2021/09/12 09:33:27;;;;;;;13.02;10.05;;;;;;;20.73;42.44;101611.84;5038542;28;20548;-71
2021/09/12 09:35:55;;;;;;;16.20;10.90;;;;;;;20.61;43.18;101620.66;5038692;28;20029;-71
2021/09/12 09:38:23;;;;;;;18.13;11.25;;;;;;;20.02;44.58;101624.69;5036837;28;20200;-73
2021/09/12 09:41:12;;;;;;;18.90;10.13;;;;;;;20.09;45.28;101623.31;5043286;28;20029;-71
2021/09/12 09:43:49;;;;;;;25.08;11.77;;;;;;;20.05;44.73;101621.81;5038396;28;20033;-71
2021/09/12 09:46:53;;;;;;;13.95;10.15;;;;;;;20.21;45.69;101612.84;5038544;28;20409;-71
2021/09/12 09:49:27;;;;;;;14.32;10.05;;;;;;;20.31;44.78;101614.75;5002642;28;20354;-72
2021/09/12 09:52:00;;;;;;;22.08;12.75;;;;;;;20.36;44.93;101611.78;5031987;28;20045;-71
2021/09/12 09:54:31;;;;;;;16.23;11.15;;;;;;;20.51;44.47;101615.16;5032874;28;20132;-71
2021/09/12 09:56:57;;;;;;;18.33;11.10;;;;;;;20.78;44.04;101612.34;5054258;28;20072;-71
2021/09/12 09:59:24;;;;;;;21.92;12.48;;;;;;;20.94;43.28;101615.59;5036878;28;20071;-71
2021/09/12 10:01:52;;;;;;;14.82;11.00;;;;;;;21.01;43.86;101616.00;5037405;28;20028;-71
2021/09/12 10:04:19;;;;;;;14.40;9.45;;;;;;;20.76;43.05;101606.28;5036959;28;20032;-71
2021/09/12 10:06:46;;;;;;;18.60;11.52;;;;;;;20.26;44.04;101610.72;5036967;28;20434;-70
2021/09/12 10:09:13;;;;;;;19.70;10.80;;;;;;;19.05;46.13;101616.97;5037164;28;20033;-72
2021/09/12 10:11:42;;;;;;;15.32;11.07;;;;;;;18.98;47.74;101610.38;5037792;28;20061;-71
2021/09/12 10:14:10;;;;;;;19.50;11.88;;;;;;;18.62;49.00;101615.22;5036771;28;20037;-70
2021/09/12 10:16:36;;;;;;;18.67;12.55;;;;;;;18.51;49.86;101612.41;5039968;28;20539;-71
2021/09/12 10:19:01;;;;;;;17.20;11.55;;;;;;;18.81;49.60;101620.22;5037188;28;20040;-71
2021/09/12 10:21:29;;;;;;;19.25;12.88;;;;;;;18.62;48.99;101619.66;5037233;28;20017;-71
2021/09/12 10:23:58;;;;;;;19.75;13.15;;;;;;;18.57;49.63;101617.31;5037335;28;20437;-71
2021/09/12 10:26:29;;;;;;;20.17;11.57;;;;;;;19.01;49.17;101620.75;5039081;28;20064;-71
2021/09/12 10:28:54;;;;;;;17.83;10.50;;;;;;;19.16;47.56;101619.78;5040153;28;20426;-71
2021/09/12 10:31:26;;;;;;;14.85;11.35;;;;;;;19.27;47.32;101622.56;5037013;28;20071;-71
2021/09/12 10:34:08;;;;;;;12.90;9.73;;;;;;;19.50;46.92;101618.44;5037597;28;20030;-72
2021/09/12 10:36:34;;;;;;;13.80;9.48;;;;;;;19.25;47.09;101624.47;5036744;28;20033;-70
2021/09/12 10:39:26;;;;;;;17.13;9.63;;;;;;;19.66;47.25;101623.59;5042679;28;20496;-70
2021/09/12 10:42:09;;;;;;;11.70;8.40;;;;;;;20.06;45.41;101623.53;5037894;28;20136;-70
2021/09/12 10:44:35;;;;;;;15.48;7.72;;;;;;;20.19;44.57;101620.03;5043586;28;20469;-70
2021/09/12 10:47:09;;;;;;;9.85;6.68;;;;;;;20.19;45.89;101622.69;5036425;28;20033;-70
2021/09/12 10:49:34;;;;;;;9.02;5.00;;;;;;;20.04;44.45;101627.25;5043447;28;20067;-70
2021/09/12 10:52:00;;;;;;;10.70;3.92;;;;;;;19.57;43.34;101629.50;5035836;28;20064;-70
2021/09/12 10:54:25;;;;;;;7.82;2.63;;;;;;;19.46;44.44;101619.59;5036613;28;20038;-70
2021/09/12 10:57:08;;;;;;;4.43;3.00;;;;;;;18.92;45.15;101626.66;5037994;28;20036;-70
2021/09/12 10:59:34;;;;;;;2.35;1.83;;;;;;;18.75;45.04;101633.84;5035904;28;20028;-71
2021/09/12 11:02:00;;;;;;;8.77;2.45;;;;;;;18.67;45.82;101634.31;5038270;28;20025;-72
2021/09/12 11:04:32;;;;;;;6.63;1.92;;;;;;;18.92;45.64;101647.84;5034610;28;20048;-70
2021/09/12 11:07:02;;;;;;;;;;;;;;;18.34;46.12;101637.28;5037002;28;20140;-71